sensor_id;sensor_type;location;lat;lon;timestamp;pressure;altitude;pressure_sealevel;temperature;humidity
10348;BME280;5220;43.192;23.284;2022-08-19T00:00:06;96669.34;;;25.76;50.60
10348;BME280;5220;43.192;23.284;2022-08-19T00:02:40;96672.69;;;25.65;51.13
10348;BME280;5220;43.192;23.284;2022-08-19T00:05:07;96678.25;;;25.57;51.39
10348;BME280;5220;43.192;23.284;2022-08-19T00:07:43;96678.69;;;25.41;51.27
10348;BME280;5220;43.192;23.284;2022-08-19T00:10:11;96673.22;;;25.29;51.91
10348;BME280;5220;43.192;23.284;2022-08-19T00:12:40;96672.25;;;25.17;51.77
10348;BME280;5220;43.192;23.284;2022-08-19T00:15:09;96664.47;;;25.16;51.99
10348;BME280;5220;43.192;23.284;2022-08-19T00:17:38;96673.25;;;25.16;52.12
10348;BME280;5220;43.192;23.284;2022-08-19T00:20:07;96666.31;;;25.15;52.02
10348;BME280;5220;43.192;23.284;2022-08-19T00:22:34;96665.91;;;25.18;52.08
10348;BME280;5220;43.192;23.284;2022-08-19T00:25:03;96667.34;;;25.14;52.09
10348;BME280;5220;43.192;23.284;2022-08-19T00:27:34;96672.06;;;25.19;52.02
10348;BME280;5220;43.192;23.284;2022-08-19T00:30:04;96668.31;;;25.26;52.16
10348;BME280;5220;43.192;23.284;2022-08-19T00:32:31;96665.03;;;25.31;51.61
10348;BME280;5220;43.192;23.284;2022-08-19T00:34:59;96667.06;;;25.35;51.79
10348;BME280;5220;43.192;23.284;2022-08-19T00:37:27;96656.03;;;25.25;52.10
10348;BME280;5220;43.192;23.284;2022-08-19T00:43:21;96656.66;;;25.27;51.77
10348;BME280;5220;43.192;23.284;2022-08-19T00:45:48;96651.94;;;25.23;51.63
10348;BME280;5220;43.192;23.284;2022-08-19T00:48:17;96654.81;;;25.28;51.79
10348;BME280;5220;43.192;23.284;2022-08-19T00:50:56;96656.66;;;25.27;51.86
10348;BME280;5220;43.192;23.284;2022-08-19T00:53:26;96648.44;;;25.29;52.23
10348;BME280;5220;43.192;23.284;2022-08-19T00:55:55;96644.34;;;25.26;51.77
10348;BME280;5220;43.192;23.284;2022-08-19T00:58:29;96642.09;;;25.30;52.07
10348;BME280;5220;43.192;23.284;2022-08-19T01:00:56;96646.41;;;25.31;52.23
10348;BME280;5220;43.192;23.284;2022-08-19T01:03:26;96648.84;;;25.32;51.59
10348;BME280;5220;43.192;23.284;2022-08-19T01:05:53;96648.41;;;25.35;52.05
10348;BME280;5220;43.192;23.284;2022-08-19T01:11:43;96645.94;;;25.40;52.76
10348;BME280;5220;43.192;23.284;2022-08-19T01:14:13;96647.56;;;25.41;52.63
10348;BME280;5220;43.192;23.284;2022-08-19T01:16:40;96642.03;;;25.43;52.75
10348;BME280;5220;43.192;23.284;2022-08-19T01:19:15;96641.03;;;25.37;53.04
10348;BME280;5220;43.192;23.284;2022-08-19T01:21:50;96643.72;;;25.37;52.95
10348;BME280;5220;43.192;23.284;2022-08-19T01:24:23;96653.94;;;25.40;52.93
10348;BME280;5220;43.192;23.284;2022-08-19T01:26:51;96650.22;;;25.41;53.01
10348;BME280;5220;43.192;23.284;2022-08-19T01:29:18;96644.31;;;25.39;53.26
10348;BME280;5220;43.192;23.284;2022-08-19T01:31:45;96649.63;;;25.39;53.23
10348;BME280;5220;43.192;23.284;2022-08-19T01:34:12;96651.47;;;25.39;53.48
10348;BME280;5220;43.192;23.284;2022-08-19T01:36:41;96652.91;;;25.35;53.42
10348;BME280;5220;43.192;23.284;2022-08-19T01:42:33;96659.34;;;25.21;53.98
10348;BME280;5220;43.192;23.284;2022-08-19T01:45:00;96663.84;;;25.20;53.87
10348;BME280;5220;43.192;23.284;2022-08-19T01:47:28;96663.84;;;25.20;53.44
10348;BME280;5220;43.192;23.284;2022-08-19T01:53:18;96657.94;;;25.11;53.20
10348;BME280;5220;43.192;23.284;2022-08-19T01:55:45;96649.97;;;24.98;53.19
10348;BME280;5220;43.192;23.284;2022-08-19T01:58:16;96647.16;;;24.87;54.12
10348;BME280;5220;43.192;23.284;2022-08-19T02:00:44;96650.22;;;24.84;54.20
10348;BME280;5220;43.192;23.284;2022-08-19T02:03:11;96653.50;;;24.86;54.03
10348;BME280;5220;43.192;23.284;2022-08-19T02:05:39;96646.75;;;24.90;53.94
10348;BME280;5220;43.192;23.284;2022-08-19T02:08:06;96647.56;;;24.90;53.97
10348;BME280;5220;43.192;23.284;2022-08-19T02:10:33;96646.50;;;24.91;53.71
10348;BME280;5220;43.192;23.284;2022-08-19T02:13:06;96644.06;;;24.90;53.90
10348;BME280;5220;43.192;23.284;2022-08-19T02:15:34;96642.84;;;24.92;53.87
10348;BME280;5220;43.192;23.284;2022-08-19T02:18:01;96641.00;;;24.93;53.93
10348;BME280;5220;43.192;23.284;2022-08-19T02:20:28;96651.81;;;24.98;53.81
10348;BME280;5220;43.192;23.284;2022-08-19T02:22:56;96643.84;;;24.98;53.38
10348;BME280;5220;43.192;23.284;2022-08-19T02:25:23;96645.31;;;24.94;54.21
10348;BME280;5220;43.192;23.284;2022-08-19T02:27:49;96648.56;;;24.96;53.64
10348;BME280;5220;43.192;23.284;2022-08-19T02:30:17;96650.41;;;24.95;53.70
10348;BME280;5220;43.192;23.284;2022-08-19T02:32:45;96656.31;;;24.97;53.92
10348;BME280;5220;43.192;23.284;2022-08-19T02:35:13;96650.81;;;24.99;53.79
10348;BME280;5220;43.192;23.284;2022-08-19T02:37:40;96653.47;;;24.99;53.54
10348;BME280;5220;43.192;23.284;2022-08-19T02:40:51;96652.03;;;24.96;54.08
10348;BME280;5220;43.192;23.284;2022-08-19T02:43:19;96653.06;;;24.95;53.99
10348;BME280;5220;43.192;23.284;2022-08-19T02:45:47;96646.72;;;24.96;54.37
10348;BME280;5220;43.192;23.284;2022-08-19T02:48:17;96647.97;;;24.94;54.12
10348;BME280;5220;43.192;23.284;2022-08-19T02:50:44;96651.63;;;24.99;53.78
10348;BME280;5220;43.192;23.284;2022-08-19T02:53:13;96652.88;;;24.90;54.00
10348;BME280;5220;43.192;23.284;2022-08-19T02:55:44;96658.81;;;24.86;54.22
10348;BME280;5220;43.192;23.284;2022-08-19T02:58:12;96658.63;;;24.87;54.30
10348;BME280;5220;43.192;23.284;2022-08-19T03:00:44;96670.47;;;24.85;54.79
10348;BME280;5220;43.192;23.284;2022-08-19T03:03:11;96663.09;;;24.80;54.93
10348;BME280;5220;43.192;23.284;2022-08-19T03:05:40;96665.16;;;24.78;55.08
10348;BME280;5220;43.192;23.284;2022-08-19T03:08:07;96668.44;;;24.74;54.86
10348;BME280;5220;43.192;23.284;2022-08-19T03:10:41;96666.78;;;24.73;54.53
10348;BME280;5220;43.192;23.284;2022-08-19T03:13:11;96666.78;;;24.73;54.11
10348;BME280;5220;43.192;23.284;2022-08-19T03:15:40;96664.13;;;24.73;54.03
10348;BME280;5220;43.192;23.284;2022-08-19T03:18:07;96663.09;;;24.74;54.30
10348;BME280;5220;43.192;23.284;2022-08-19T03:20:33;96665.16;;;24.72;54.62
10348;BME280;5220;43.192;23.284;2022-08-19T03:23:02;96667.59;;;24.73;54.28
10348;BME280;5220;43.192;23.284;2022-08-19T03:25:28;96672.09;;;24.73;53.98
10348;BME280;5220;43.192;23.284;2022-08-19T03:27:55;96670.50;;;24.72;54.09
10348;BME280;5220;43.192;23.284;2022-08-19T03:30:24;96669.66;;;24.65;54.19
10348;BME280;5220;43.192;23.284;2022-08-19T03:32:51;96661.50;;;24.59;54.50
10348;BME280;5220;43.192;23.284;2022-08-19T03:35:20;96662.53;;;24.58;54.42
10348;BME280;5220;43.192;23.284;2022-08-19T03:37:47;96666.59;;;24.54;54.71
10348;BME280;5220;43.192;23.284;2022-08-19T03:40:15;96667.44;;;24.55;54.97
10348;BME280;5220;43.192;23.284;2022-08-19T03:42:44;96669.06;;;24.56;54.71
10348;BME280;5220;43.192;23.284;2022-08-19T03:45:11;96664.34;;;24.51;54.60
10348;BME280;5220;43.192;23.284;2022-08-19T03:47:39;96670.91;;;24.42;54.47
10348;BME280;5220;43.192;23.284;2022-08-19T03:50:08;96663.56;;;24.38;55.08
10348;BME280;5220;43.192;23.284;2022-08-19T03:52:41;96675.63;;;24.40;55.36
10348;BME280;5220;43.192;23.284;2022-08-19T03:55:10;96669.91;;;24.43;55.55
10348;BME280;5220;43.192;23.284;2022-08-19T03:57:39;96666.81;;;24.46;55.73
10348;BME280;5220;43.192;23.284;2022-08-19T04:00:07;96672.75;;;24.48;55.31
10348;BME280;5220;43.192;23.284;2022-08-19T04:02:37;96676.63;;;24.46;55.28
10348;BME280;5220;43.192;23.284;2022-08-19T04:05:04;96671.94;;;24.41;55.44
10348;BME280;5220;43.192;23.284;2022-08-19T04:07:33;96671.94;;;24.41;56.03
10348;BME280;5220;43.192;23.284;2022-08-19T04:13:23;96688.91;;;24.34;56.93
10348;BME280;5220;43.192;23.284;2022-08-19T04:15:50;96691.34;;;24.35;56.80
10348;BME280;5220;43.192;23.284;2022-08-19T04:21:27;96702.00;;;24.42;57.00
10348;BME280;5220;43.192;23.284;2022-08-19T04:23:55;96705.91;;;24.46;57.05
10348;BME280;5220;43.192;23.284;2022-08-19T04:26:26;96699.16;;;24.43;56.62
10348;BME280;5220;43.192;23.284;2022-08-19T04:28:54;96699.97;;;24.37;56.37
10348;BME280;5220;43.192;23.284;2022-08-19T04:31:25;96706.50;;;24.35;56.69
10348;BME280;5220;43.192;23.284;2022-08-19T04:33:59;96701.16;;;24.35;57.62
10348;BME280;5220;43.192;23.284;2022-08-19T04:36:29;96700.97;;;24.36;57.20
10348;BME280;5220;43.192;23.284;2022-08-19T04:42:18;96691.16;;;24.37;57.88
10348;BME280;5220;43.192;23.284;2022-08-19T04:45:04;96694.25;;;24.40;58.00
10348;BME280;5220;43.192;23.284;2022-08-19T04:47:31;96698.31;;;24.43;59.03
10348;BME280;5220;43.192;23.284;2022-08-19T04:52:58;96694.84;;;24.49;59.37
10348;BME280;5220;43.192;23.284;2022-08-19T04:55:25;96700.59;;;24.52;59.72
10348;BME280;5220;43.192;23.284;2022-08-19T04:57:52;96698.75;;;24.53;60.13
10348;BME280;5220;43.192;23.284;2022-08-19T05:00:20;96703.84;;;24.54;60.82
10348;BME280;5220;43.192;23.284;2022-08-19T05:02:47;96697.09;;;24.58;60.41
10348;BME280;5220;43.192;23.284;2022-08-19T05:05:14;96695.03;;;24.60;60.79
10348;BME280;5220;43.192;23.284;2022-08-19T05:07:41;96700.59;;;24.66;60.89
10348;BME280;5220;43.192;23.284;2022-08-19T05:10:08;96701.19;;;24.68;61.42
10348;BME280;5220;43.192;23.284;2022-08-19T05:12:35;96693.41;;;24.66;62.11
10348;BME280;5220;43.192;23.284;2022-08-19T05:15:05;96696.28;;;24.65;62.32
10348;BME280;5220;43.192;23.284;2022-08-19T05:17:35;96705.28;;;24.70;62.08
10348;BME280;5220;43.192;23.284;2022-08-19T05:20:03;96707.94;;;24.70;62.57
10348;BME280;5220;43.192;23.284;2022-08-19T05:22:47;96707.50;;;24.73;62.82
10348;BME280;5220;43.192;23.284;2022-08-19T05:25:16;96709.34;;;24.73;63.28
10348;BME280;5220;43.192;23.284;2022-08-19T05:27:44;96707.31;;;24.75;63.38
10348;BME280;5220;43.192;23.284;2022-08-19T05:30:12;96704.84;;;24.73;63.91
10348;BME280;5220;43.192;23.284;2022-08-19T05:32:41;96715.94;;;24.83;64.23
10348;BME280;5220;43.192;23.284;2022-08-19T05:35:08;96705.28;;;24.83;64.14
10348;BME280;5220;43.192;23.284;2022-08-19T05:37:39;96718.78;;;24.95;64.77
10348;BME280;5220;43.192;23.284;2022-08-19T05:40:08;96713.03;;;24.98;65.42
10348;BME280;5220;43.192;23.284;2022-08-19T05:42:35;96720.81;;;25.06;65.70
10348;BME280;5220;43.192;23.284;2022-08-19T05:45:03;96710.97;;;25.06;66.02
10348;BME280;5220;43.192;23.284;2022-08-19T05:47:30;96720.81;;;25.06;66.61
10348;BME280;5220;43.192;23.284;2022-08-19T05:50:14;96714.03;;;25.03;66.93
10348;BME280;5220;43.192;23.284;2022-08-19T05:52:42;96720.81;;;25.12;67.12
10348;BME280;5220;43.192;23.284;2022-08-19T05:55:10;96711.78;;;25.13;67.52
10348;BME280;5220;43.192;23.284;2022-08-19T05:57:37;96722.00;;;25.23;67.43
10348;BME280;5220;43.192;23.284;2022-08-19T06:00:06;96718.69;;;25.34;67.37
10348;BME280;5220;43.192;23.284;2022-08-19T06:02:35;96715.41;;;25.39;67.13
10348;BME280;5220;43.192;23.284;2022-08-19T06:05:12;96711.31;;;25.49;66.57
10348;BME280;5220;43.192;23.284;2022-08-19T06:07:40;96719.28;;;25.56;65.06
10348;BME280;5220;43.192;23.284;2022-08-19T06:10:16;96723.50;;;25.70;64.19
10348;BME280;5220;43.192;23.284;2022-08-19T06:12:43;96720.22;;;25.75;63.74
10348;BME280;5220;43.192;23.284;2022-08-19T06:15:12;96731.84;;;25.87;62.28
10348;BME280;5220;43.192;23.284;2022-08-19T06:17:39;96722.19;;;25.86;61.32
10348;BME280;5220;43.192;23.284;2022-08-19T06:20:09;96727.22;;;26.00;60.61
10348;BME280;5220;43.192;23.284;2022-08-19T06:22:40;96718.59;;;26.05;60.66
10348;BME280;5220;43.192;23.284;2022-08-19T06:25:08;96721.66;;;26.08;60.41
10348;BME280;5220;43.192;23.284;2022-08-19T06:27:35;96724.50;;;26.20;59.05
10348;BME280;5220;43.192;23.284;2022-08-19T06:30:03;96720.09;;;26.32;57.73
10348;BME280;5220;43.192;23.284;2022-08-19T06:32:32;96718.75;;;26.48;56.97
10348;BME280;5220;43.192;23.284;2022-08-19T06:35:01;96722.56;;;26.58;56.19
10348;BME280;5220;43.192;23.284;2022-08-19T06:37:34;96724.19;;;26.59;56.87
10348;BME280;5220;43.192;23.284;2022-08-19T06:40:05;96730.25;;;26.73;56.64
10348;BME280;5220;43.192;23.284;2022-08-19T06:42:33;96714.53;;;26.65;54.78
10348;BME280;5220;43.192;23.284;2022-08-19T06:45:05;96726.63;;;26.92;55.95
10348;BME280;5220;43.192;23.284;2022-08-19T06:47:35;96732.03;;;27.04;55.77
10348;BME280;5220;43.192;23.284;2022-08-19T06:50:03;96725.75;;;27.16;55.13
10348;BME280;5220;43.192;23.284;2022-08-19T06:52:30;96731.78;;;27.30;53.99
10348;BME280;5220;43.192;23.284;2022-08-19T06:54:58;96725.94;;;27.40;53.43
10348;BME280;5220;43.192;23.284;2022-08-19T06:57:26;96726.31;;;27.43;52.23
10348;BME280;5220;43.192;23.284;2022-08-19T06:59:56;96730.75;;;27.49;52.03
10348;BME280;5220;43.192;23.284;2022-08-19T07:02:23;96727.66;;;27.52;51.32
10348;BME280;5220;43.192;23.284;2022-08-19T07:04:51;96724.75;;;27.54;50.42
10348;BME280;5220;43.192;23.284;2022-08-19T07:07:19;96728.53;;;27.64;49.82
10348;BME280;5220;43.192;23.284;2022-08-19T07:09:50;96729.19;;;27.78;50.08
10348;BME280;5220;43.192;23.284;2022-08-19T07:12:18;96733.09;;;27.94;50.13
10348;BME280;5220;43.192;23.284;2022-08-19T07:14:46;96734.19;;;28.04;49.78
10348;BME280;5220;43.192;23.284;2022-08-19T07:17:14;96739.13;;;28.07;50.08
10348;BME280;5220;43.192;23.284;2022-08-19T07:19:41;96736.72;;;28.17;48.93
10348;BME280;5220;43.192;23.284;2022-08-19T07:22:09;96731.75;;;28.33;48.40
10348;BME280;5220;43.192;23.284;2022-08-19T07:24:36;96739.81;;;28.44;48.60
10348;BME280;5220;43.192;23.284;2022-08-19T07:27:05;96742.16;;;28.52;48.07
10348;BME280;5220;43.192;23.284;2022-08-19T07:29:47;96740.44;;;28.58;47.91
10348;BME280;5220;43.192;23.284;2022-08-19T07:32:14;96745.91;;;28.63;47.54
10348;BME280;5220;43.192;23.284;2022-08-19T07:34:40;96747.22;;;28.72;48.06
10348;BME280;5220;43.192;23.284;2022-08-19T07:37:07;96750.16;;;28.82;48.17
10348;BME280;5220;43.192;23.284;2022-08-19T07:39:40;96749.13;;;28.95;48.96
10348;BME280;5220;43.192;23.284;2022-08-19T07:42:09;96751.09;;;28.99;49.15
10348;BME280;5220;43.192;23.284;2022-08-19T07:44:37;96747.00;;;29.08;48.97
10348;BME280;5220;43.192;23.284;2022-08-19T07:47:05;96745.03;;;29.15;49.67
10348;BME280;5220;43.192;23.284;2022-08-19T07:49:33;96753.78;;;29.22;49.33
10348;BME280;5220;43.192;23.284;2022-08-19T07:52:04;96752.13;;;29.21;48.82
10348;BME280;5220;43.192;23.284;2022-08-19T07:54:36;96753.69;;;29.29;49.17
10348;BME280;5220;43.192;23.284;2022-08-19T07:57:06;96759.97;;;29.34;49.48
10348;BME280;5220;43.192;23.284;2022-08-19T07:59:33;96758.34;;;29.45;48.19
10348;BME280;5220;43.192;23.284;2022-08-19T08:02:00;96757.88;;;29.48;48.32
10348;BME280;5220;43.192;23.284;2022-08-19T08:04:29;96755.97;;;29.49;46.90
10348;BME280;5220;43.192;23.284;2022-08-19T08:07:14;96761.22;;;29.55;46.61
10348;BME280;5220;43.192;23.284;2022-08-19T08:09:58;96757.59;;;29.61;46.28
10348;BME280;5220;43.192;23.284;2022-08-19T08:12:29;96756.16;;;29.70;44.41
10348;BME280;5220;43.192;23.284;2022-08-19T08:14:59;96755.00;;;29.78;44.42
10348;BME280;5220;43.192;23.284;2022-08-19T08:17:28;96757.19;;;29.81;45.20
10348;BME280;5220;43.192;23.284;2022-08-19T08:19:59;96753.59;;;29.87;45.54
10348;BME280;5220;43.192;23.284;2022-08-19T08:22:25;96746.72;;;29.91;45.55
10348;BME280;5220;43.192;23.284;2022-08-19T08:25:11;96746.31;;;29.99;45.82
10348;BME280;5220;43.192;23.284;2022-08-19T08:27:40;96745.16;;;30.07;44.51
10348;BME280;5220;43.192;23.284;2022-08-19T08:30:08;96752.13;;;30.08;45.53
10348;BME280;5220;43.192;23.284;2022-08-19T08:32:36;96743.84;;;30.09;45.06
10348;BME280;5220;43.192;23.284;2022-08-19T08:35:05;96742.19;;;30.20;44.24
10348;BME280;5220;43.192;23.284;2022-08-19T08:37:32;96745.28;;;30.28;45.34
10348;BME280;5220;43.192;23.284;2022-08-19T08:40:03;96740.25;;;30.32;44.90
10348;BME280;5220;43.192;23.284;2022-08-19T08:42:35;96737.19;;;30.40;44.86
10348;BME280;5220;43.192;23.284;2022-08-19T08:45:08;96731.44;;;30.48;45.24
10348;BME280;5220;43.192;23.284;2022-08-19T08:47:43;96737.72;;;30.54;45.66
10348;BME280;5220;43.192;23.284;2022-08-19T08:50:18;96732.25;;;30.65;44.61
10348;BME280;5220;43.192;23.284;2022-08-19T08:52:48;96735.75;;;30.66;44.89
10348;BME280;5220;43.192;23.284;2022-08-19T08:55:19;96737.78;;;30.75;44.86
10348;BME280;5220;43.192;23.284;2022-08-19T08:57:52;96735.66;;;30.61;44.45
10348;BME280;5220;43.192;23.284;2022-08-19T09:00:25;96732.41;;;30.75;44.26
10348;BME280;5220;43.192;23.284;2022-08-19T09:02:53;96726.56;;;30.78;43.17
10348;BME280;5220;43.192;23.284;2022-08-19T09:05:23;96730.84;;;30.79;43.11
10348;BME280;5220;43.192;23.284;2022-08-19T09:07:57;96722.47;;;30.92;42.08
10348;BME280;5220;43.192;23.284;2022-08-19T09:10:31;96719.97;;;31.03;42.89
10348;BME280;5220;43.192;23.284;2022-08-19T09:13:05;96712.06;;;31.13;43.00
10348;BME280;5220;43.192;23.284;2022-08-19T09:15:36;96713.66;;;31.14;42.73
10348;BME280;5220;43.192;23.284;2022-08-19T09:18:05;96714.50;;;31.14;42.88
10348;BME280;5220;43.192;23.284;2022-08-19T09:20:33;96706.84;;;31.23;42.25
10348;BME280;5220;43.192;23.284;2022-08-19T09:23:00;96703.16;;;31.29;42.12
10348;BME280;5220;43.192;23.284;2022-08-19T09:25:27;96702.22;;;31.40;42.67
10348;BME280;5220;43.192;23.284;2022-08-19T09:27:54;96702.22;;;31.40;42.40
10348;BME280;5220;43.192;23.284;2022-08-19T09:30:24;96705.78;;;31.45;41.00
10348;BME280;5220;43.192;23.284;2022-08-19T09:32:51;96708.63;;;31.56;41.21
10348;BME280;5220;43.192;23.284;2022-08-19T09:35:20;96694.38;;;31.55;41.51
10348;BME280;5220;43.192;23.284;2022-08-19T09:37:49;96702.81;;;31.64;40.82
10348;BME280;5220;43.192;23.284;2022-08-19T09:40:17;96698.88;;;31.71;40.49
10348;BME280;5220;43.192;23.284;2022-08-19T09:42:45;96692.66;;;31.71;41.84
10348;BME280;5220;43.192;23.284;2022-08-19T09:45:13;96697.13;;;31.60;41.28
10348;BME280;5220;43.192;23.284;2022-08-19T09:47:40;96699.88;;;31.65;41.58
10348;BME280;5220;43.192;23.284;2022-08-19T09:50:09;96696.50;;;31.75;41.31
10348;BME280;5220;43.192;23.284;2022-08-19T09:52:37;96694.84;;;31.74;41.73
10348;BME280;5220;43.192;23.284;2022-08-19T09:55:07;96695.53;;;31.86;41.51
10348;BME280;5220;43.192;23.284;2022-08-19T09:57:35;96700.53;;;31.99;41.06
10348;BME280;5220;43.192;23.284;2022-08-19T10:00:03;96694.47;;;32.09;41.39
10348;BME280;5220;43.192;23.284;2022-08-19T10:02:30;96690.78;;;32.20;40.30
10348;BME280;5220;43.192;23.284;2022-08-19T10:04:57;96685.72;;;32.23;40.23
10348;BME280;5220;43.192;23.284;2022-08-19T10:07:42;96684.34;;;32.21;39.04
10348;BME280;5220;43.192;23.284;2022-08-19T10:10:10;96684.97;;;32.28;39.54
10348;BME280;5220;43.192;23.284;2022-08-19T10:12:37;96680.41;;;32.28;39.35
10348;BME280;5220;43.192;23.284;2022-08-19T10:15:05;96686.34;;;32.30;39.55
10348;BME280;5220;43.192;23.284;2022-08-19T10:17:33;96673.41;;;32.32;39.12
10348;BME280;5220;43.192;23.284;2022-08-19T10:20:00;96672.91;;;32.35;39.07
10348;BME280;5220;43.192;23.284;2022-08-19T10:22:29;96675.38;;;32.42;38.92
10348;BME280;5220;43.192;23.284;2022-08-19T10:24:56;96677.56;;;32.45;39.06
10348;BME280;5220;43.192;23.284;2022-08-19T10:27:24;96670.84;;;32.47;38.92
10348;BME280;5220;43.192;23.284;2022-08-19T10:29:52;96670.59;;;32.49;38.77
10348;BME280;5220;43.192;23.284;2022-08-19T10:32:19;96662.88;;;32.58;37.38
10348;BME280;5220;43.192;23.284;2022-08-19T10:34:47;96670.28;;;32.40;38.51
10348;BME280;5220;43.192;23.284;2022-08-19T10:37:15;96660.19;;;32.58;38.79
10348;BME280;5220;43.192;23.284;2022-08-19T10:39:46;96650.41;;;32.52;37.90
10348;BME280;5220;43.192;23.284;2022-08-19T10:42:13;96655.38;;;32.60;37.24
10348;BME280;5220;43.192;23.284;2022-08-19T10:44:42;96658.94;;;32.70;38.66
10348;BME280;5220;43.192;23.284;2022-08-19T10:47:10;96660.56;;;32.71;37.89
10348;BME280;5220;43.192;23.284;2022-08-19T10:49:37;96663.59;;;32.80;37.67
10348;BME280;5220;43.192;23.284;2022-08-19T10:52:23;96665.75;;;32.83;37.89
10348;BME280;5220;43.192;23.284;2022-08-19T10:55:04;96661.50;;;32.87;36.34
10348;BME280;5220;43.192;23.284;2022-08-19T10:57:49;96656.94;;;32.92;37.02
10348;BME280;5220;43.192;23.284;2022-08-19T11:00:18;96657.16;;;32.86;37.02
10348;BME280;5220;43.192;23.284;2022-08-19T11:02:45;96655.34;;;32.96;37.24
10348;BME280;5220;43.192;23.284;2022-08-19T11:05:12;96652.13;;;32.99;37.26
10348;BME280;5220;43.192;23.284;2022-08-19T11:07:40;96652.47;;;33.08;36.45
10348;BME280;5220;43.192;23.284;2022-08-19T11:10:09;96652.44;;;33.03;36.64
10348;BME280;5220;43.192;23.284;2022-08-19T11:12:37;96646.56;;;33.11;35.30
10348;BME280;5220;43.192;23.284;2022-08-19T11:15:06;96642.00;;;33.17;35.94
10348;BME280;5220;43.192;23.284;2022-08-19T11:17:37;96641.72;;;33.13;35.28
10348;BME280;5220;43.192;23.284;2022-08-19T11:20:09;96645.50;;;33.12;35.88
10348;BME280;5220;43.192;23.284;2022-08-19T11:22:36;96646.38;;;33.28;34.71
10348;BME280;5220;43.192;23.284;2022-08-19T11:25:03;96636.94;;;33.25;35.08
10348;BME280;5220;43.192;23.284;2022-08-19T11:27:30;96631.28;;;33.27;35.40
10348;BME280;5220;43.192;23.284;2022-08-19T11:29:58;96625.09;;;33.31;34.81
10348;BME280;5220;43.192;23.284;2022-08-19T11:32:25;96624.34;;;33.46;35.58
10348;BME280;5220;43.192;23.284;2022-08-19T11:34:54;96622.47;;;33.46;34.42
10348;BME280;5220;43.192;23.284;2022-08-19T11:37:21;96618.13;;;33.40;34.33
10348;BME280;5220;43.192;23.284;2022-08-19T11:39:49;96616.22;;;33.41;32.58
10348;BME280;5220;43.192;23.284;2022-08-19T11:42:17;96612.44;;;33.42;33.42
10348;BME280;5220;43.192;23.284;2022-08-19T11:45:02;96611.63;;;33.36;34.28
10348;BME280;5220;43.192;23.284;2022-08-19T11:47:29;96613.00;;;33.44;34.47
10348;BME280;5220;43.192;23.284;2022-08-19T11:49:58;96609.22;;;33.45;34.40
10348;BME280;5220;43.192;23.284;2022-08-19T11:52:25;96606.00;;;33.48;34.74
10348;BME280;5220;43.192;23.284;2022-08-19T11:54:52;96610.31;;;33.54;34.58
10348;BME280;5220;43.192;23.284;2022-08-19T11:57:19;96611.44;;;33.58;35.02
10348;BME280;5220;43.192;23.284;2022-08-19T11:59:50;96604.41;;;33.52;34.68
10348;BME280;5220;43.192;23.284;2022-08-19T12:02:24;96604.34;;;33.37;34.29
10348;BME280;5220;43.192;23.284;2022-08-19T12:04:51;96600.59;;;33.48;34.23
10348;BME280;5220;43.192;23.284;2022-08-19T12:07:19;96596.59;;;33.56;33.97
10348;BME280;5220;43.192;23.284;2022-08-19T12:09:47;96596.88;;;33.59;33.77
10348;BME280;5220;43.192;23.284;2022-08-19T12:12:15;96600.03;;;33.41;33.74
10348;BME280;5220;43.192;23.284;2022-08-19T12:14:41;96592.25;;;33.54;33.23
10348;BME280;5220;43.192;23.284;2022-08-19T12:17:08;96591.19;;;33.56;34.18
10348;BME280;5220;43.192;23.284;2022-08-19T12:19:37;96587.16;;;33.63;33.70
10348;BME280;5220;43.192;23.284;2022-08-19T12:22:04;96575.31;;;33.69;34.25
10348;BME280;5220;43.192;23.284;2022-08-19T12:24:34;96584.22;;;33.60;33.78
10348;BME280;5220;43.192;23.284;2022-08-19T12:27:01;96579.63;;;33.70;33.56
10348;BME280;5220;43.192;23.284;2022-08-19T12:29:47;96581.81;;;33.73;33.30
10348;BME280;5220;43.192;23.284;2022-08-19T12:32:23;96570.72;;;33.70;32.93
10348;BME280;5220;43.192;23.284;2022-08-19T12:34:49;96570.72;;;33.65;32.88
10348;BME280;5220;43.192;23.284;2022-08-19T12:37:16;96566.69;;;33.67;34.17
10348;BME280;5220;43.192;23.284;2022-08-19T12:39:55;96575.88;;;33.71;34.77
10348;BME280;5220;43.192;23.284;2022-08-19T12:42:22;96574.50;;;33.64;34.07
10348;BME280;5220;43.192;23.284;2022-08-19T12:44:50;96565.06;;;33.76;34.20
10348;BME280;5220;43.192;23.284;2022-08-19T12:47:17;96565.63;;;33.83;34.75
10348;BME280;5220;43.192;23.284;2022-08-19T12:49:46;96558.88;;;33.86;34.62
10348;BME280;5220;43.192;23.284;2022-08-19T12:52:13;96557.28;;;33.90;34.02
10348;BME280;5220;43.192;23.284;2022-08-19T12:54:42;96568.84;;;33.75;33.31
10348;BME280;5220;43.192;23.284;2022-08-19T12:57:10;96556.47;;;33.84;34.10
10348;BME280;5220;43.192;23.284;2022-08-19T13:03:07;96563.19;;;33.82;32.61
10348;BME280;5220;43.192;23.284;2022-08-19T13:05:34;96558.59;;;33.82;33.90
10348;BME280;5220;43.192;23.284;2022-08-19T13:08:01;96558.06;;;33.85;34.57
10348;BME280;5220;43.192;23.284;2022-08-19T13:10:29;96550.78;;;33.91;33.61
10348;BME280;5220;43.192;23.284;2022-08-19T13:12:58;96544.56;;;33.85;33.73
10348;BME280;5220;43.192;23.284;2022-08-19T13:15:25;96545.09;;;33.67;32.31
10348;BME280;5220;43.192;23.284;2022-08-19T13:17:54;96542.69;;;33.86;32.85
10348;BME280;5220;43.192;23.284;2022-08-19T13:20:22;96538.66;;;33.93;32.78
10348;BME280;5220;43.192;23.284;2022-08-19T13:22:49;96538.38;;;34.00;33.72
10348;BME280;5220;43.192;23.284;2022-08-19T13:25:17;96539.19;;;33.95;34.68
10348;BME280;5220;43.192;23.284;2022-08-19T13:27:46;96538.38;;;34.05;33.95
10348;BME280;5220;43.192;23.284;2022-08-19T13:30:15;96538.09;;;34.01;34.05
10348;BME280;5220;43.192;23.284;2022-08-19T13:32:59;96538.09;;;34.01;32.93
10348;BME280;5220;43.192;23.284;2022-08-19T13:35:43;96529.72;;;33.98;32.76
10348;BME280;5220;43.192;23.284;2022-08-19T13:38:12;96535.69;;;34.05;32.75
10348;BME280;5220;43.192;23.284;2022-08-19T13:40:40;96535.41;;;33.81;32.59